Time;durP1;ratioP1;P1;durP2;ratioP2;P2;SDS_P1;SDS_P2;PMS_P1;PMS_P2;Temp;Humidity;BMP_temperature;BMP_pressure;BME280_temperature;BME280_humidity;BME280_pressure;Samples;Min_cycle;Max_cycle;Signal;HPM_P1;HPM_P2
2022/07/23 00:01:34;;;;;;;17.98;7.40;;;22.70;99.90;;;;;;5045620;28;20048;-74
2022/07/23 00:04:00;;;;;;;19.52;7.43;;;22.70;99.90;;;;;;5053265;28;20480;-80
2022/07/23 00:06:25;;;;;;;15.57;7.40;;;22.70;99.90;;;;;;5053858;28;20029;-78
2022/07/23 00:08:52;;;;;;;18.15;8.20;;;;;;;;;;5053203;28;20445;-79
2022/07/23 00:11:18;;;;;;;21.05;7.53;;;;;;;;;;5053371;28;20029;-81
2022/07/23 00:13:44;;;;;;;16.98;6.85;;;22.60;99.90;;;;;;5053089;28;20025;-80
2022/07/23 00:16:10;;;;;;;15.07;6.95;;;22.50;99.90;;;;;;5053156;28;20029;-81
2022/07/23 00:18:35;;;;;;;12.63;6.63;;;22.50;99.90;;;;;;5053336;28;20033;-81
2022/07/23 00:21:02;;;;;;;16.65;6.90;;;22.50;99.90;;;;;;5053360;28;20044;-80
2022/07/23 00:23:28;;;;;;;16.60;6.43;;;22.50;99.90;;;;;;5017089;28;20502;-81
2022/07/23 00:25:55;;;;;;;10.88;6.15;;;22.30;98.80;;;;;;5043338;28;20506;-77
2022/07/23 00:28:21;;;;;;;11.57;5.63;;;22.20;98.60;;;;;;5052837;28;20021;-81
2022/07/23 00:30:46;;;;;;;15.75;6.53;;;22.20;98.50;;;;;;5034616;28;20087;-80
2022/07/23 00:33:13;;;;;;;14.32;6.68;;;;;;;;;;5053027;28;20075;-80
2022/07/23 00:35:40;;;;;;;13.95;6.72;;;22.10;99.90;;;;;;5053521;28;20029;-80
2022/07/23 00:38:07;;;;;;;15.23;6.45;;;;;;;;;;5052715;28;20074;-80
2022/07/23 00:40:34;;;;;;;16.55;6.43;;;21.90;99.90;;;;;;5052793;28;20104;-80
2022/07/23 00:43:00;;;;;;;14.50;6.63;;;21.80;99.90;;;;;;5034387;28;20478;-77
2022/07/23 00:45:26;;;;;;;17.10;6.78;;;21.80;99.90;;;;;;5052639;28;20044;-80
2022/07/23 00:47:52;;;;;;;13.95;6.40;;;21.70;99.90;;;;;;5052928;28;20110;-80
2022/07/23 00:50:18;;;;;;;11.27;6.05;;;21.70;99.90;;;;;;5052649;28;20029;-77
2022/07/23 00:52:45;;;;;;;17.58;6.95;;;21.70;99.90;;;;;;5053047;28;20037;-81
2022/07/23 00:55:11;;;;;;;15.25;6.82;;;21.70;99.90;;;;;;5034586;28;20060;-79
2022/07/23 00:57:39;;;;;;;15.98;6.55;;;21.70;99.90;;;;;;5035064;28;20029;-76
2022/07/23 01:00:09;;;;;;;15.45;6.68;;;21.70;99.90;;;;;;5033127;28;20104;-77
2022/07/23 01:02:35;;;;;;;13.10;6.05;;;21.60;99.90;;;;;;5031557;28;20057;-78
2022/07/23 01:05:01;;;;;;;13.63;5.70;;;21.60;99.90;;;;;;5022604;28;20030;-77
2022/07/23 01:07:28;;;;;;;13.88;6.40;;;21.50;99.90;;;;;;5060453;28;20028;-77
2022/07/23 01:09:55;;;;;;;21.63;6.97;;;21.50;99.90;;;;;;5034835;28;20017;-78
2022/07/23 01:12:20;;;;;;;12.10;5.75;;;21.50;99.90;;;;;;5034903;28;20418;-77
2022/07/23 01:14:58;;;;;;;17.08;6.13;;;21.40;99.90;;;;;;5052546;28;20026;-77
2022/07/23 01:17:25;;;;;;;14.25;5.88;;;21.40;99.90;;;;;;5034920;28;20112;-78
2022/07/23 01:19:51;;;;;;;15.70;6.07;;;21.40;99.90;;;;;;5034611;28;20026;-78
2022/07/23 01:22:19;;;;;;;13.32;5.88;;;21.40;99.90;;;;;;5034457;28;20114;-80
2022/07/23 01:24:46;;;;;;;18.90;7.05;;;21.50;99.90;;;;;;5053148;28;20025;-80
2022/07/23 01:27:12;;;;;;;12.55;6.60;;;21.40;99.90;;;;;;5034031;28;20384;-80
2022/07/23 01:29:39;;;;;;;17.25;7.05;;;21.30;99.90;;;;;;5034764;28;20025;-78
2022/07/23 01:32:18;;;;;;;12.63;6.05;;;21.30;99.90;;;;;;5034379;28;20376;-76
2022/07/23 01:34:43;;;;;;;15.85;5.90;;;21.30;99.90;;;;;;5034539;28;20040;-78
2022/07/23 01:37:12;;;;;;;19.23;7.43;;;21.30;99.90;;;;;;5034412;28;20136;-77
2022/07/23 01:39:39;;;;;;;16.63;7.18;;;21.20;99.90;;;;;;5034160;28;20033;-77
2022/07/23 01:42:06;;;;;;;14.85;6.78;;;21.20;99.90;;;;;;5034333;28;20025;-78
2022/07/23 01:44:33;;;;;;;21.30;8.38;;;21.20;99.90;;;;;;5034160;28;20510;-78
2022/07/23 01:46:59;;;;;;;13.32;7.20;;;;;;;;;;5034686;28;20471;-76
2022/07/23 01:49:25;;;;;;;25.00;9.07;;;21.10;99.90;;;;;;5036834;28;20080;-77
2022/07/23 01:52:10;;;;;;;23.58;8.65;;;21.10;99.90;;;;;;5055927;28;20456;-77
2022/07/23 01:54:46;;;;;;;25.50;9.68;;;21.10;99.90;;;;;;5038272;28;20029;-78
2022/07/23 01:57:12;;;;;;;41.88;10.77;;;21.10;99.90;;;;;;5037930;28;20106;-78
2022/07/23 01:59:39;;;;;;;24.80;8.18;;;21.10;99.90;;;;;;5037946;28;20364;-78
2022/07/23 02:02:05;;;;;;;21.40;8.75;;;21.20;99.90;;;;;;5037716;28;20045;-76
2022/07/23 02:04:35;;;;;;;19.40;8.10;;;21.20;99.90;;;;;;5024341;28;20116;-79
2022/07/23 02:07:01;;;;;;;17.25;8.05;;;21.10;99.90;;;;;;5055885;28;20056;-75
2022/07/23 02:09:27;;;;;;;20.52;7.38;;;21.10;99.90;;;;;;5037778;28;20025;-66
2022/07/23 02:11:53;;;;;;;19.90;7.90;;;21.10;99.90;;;;;;5055925;28;20082;-78
2022/07/23 02:14:19;;;;;;;16.50;7.53;;;21.10;99.90;;;;;;5037630;28;20083;-79
2022/07/23 02:16:45;;;;;;;16.95;7.75;;;21.10;99.90;;;;;;5056101;28;20028;-79
2022/07/23 02:19:11;;;;;;;21.40;8.55;;;21.00;99.90;;;;;;5037414;28;20059;-80
2022/07/23 02:21:37;;;;;;;16.63;7.55;;;21.00;99.90;;;;;;5037645;28;20044;-80
2022/07/23 02:24:04;;;;;;;11.25;6.32;;;21.00;99.90;;;;;;5054977;28;20040;-80
2022/07/23 02:26:32;;;;;;;16.73;8.73;;;21.10;99.90;;;;;;5025432;28;20035;-80
2022/07/23 02:28:58;;;;;;;20.52;7.90;;;21.10;99.90;;;;;;5050441;28;20079;-78
2022/07/23 02:31:24;;;;;;;15.18;7.20;;;21.10;99.90;;;;;;5055093;28;20508;-79
2022/07/23 02:33:50;;;;;;;15.27;6.95;;;21.00;99.90;;;;;;5037440;28;20033;-80
2022/07/23 02:36:17;;;;;;;17.25;7.70;;;;;;;;;;5037934;28;20379;-79
2022/07/23 02:38:43;;;;;;;14.73;7.20;;;20.90;99.90;;;;;;5037304;28;20024;-79
2022/07/23 02:41:09;;;;;;;16.77;7.28;;;20.80;99.90;;;;;;5029842;28;20021;-80
2022/07/23 02:43:35;;;;;;;21.35;6.82;;;20.80;99.90;;;;;;5047587;28;20487;-79
2022/07/23 02:46:01;;;;;;;15.23;7.35;;;20.80;99.90;;;;;;5036874;28;20017;-78
2022/07/23 02:48:27;;;;;;;20.77;7.60;;;;;;;;;;5037010;28;20033;-79
2022/07/23 02:50:56;;;;;;;13.30;7.53;;;20.70;99.90;;;;;;5037123;28;20056;-79
2022/07/23 02:53:25;;;;;;;14.43;7.25;;;20.60;99.90;;;;;;5053751;28;20029;-80
2022/07/23 02:55:52;;;;;;;17.13;6.88;;;20.60;99.90;;;;;;5037446;28;20125;-80
2022/07/23 02:58:18;;;;;;;17.48;7.35;;;20.60;99.90;;;;;;5036751;28;20073;-77
2022/07/23 03:00:44;;;;;;;16.58;7.28;;;20.50;99.90;;;;;;5035853;28;20036;-79
2022/07/23 03:03:09;;;;;;;19.13;7.53;;;20.50;99.90;;;;;;5054395;28;20120;-79
2022/07/23 03:05:35;;;;;;;17.10;8.10;;;20.50;99.90;;;;;;5036695;28;20029;-79
2022/07/23 03:08:01;;;;;;;26.88;13.25;;;20.50;99.90;;;;;;5018639;28;20017;-79
2022/07/23 03:10:27;;;;;;;24.25;11.25;;;20.40;99.90;;;;;;5026625;28;20082;-77
2022/07/23 03:12:53;;;;;;;14.73;7.75;;;20.50;99.90;;;;;;5036206;28;20052;-80
2022/07/23 03:15:19;;;;;;;19.17;7.05;;;20.50;99.90;;;;;;5036385;28;20468;-80
2022/07/23 03:17:45;;;;;;;17.48;7.53;;;20.50;99.90;;;;;;5035371;28;20475;-79
2022/07/23 03:20:12;;;;;;;19.23;7.53;;;20.50;99.90;;;;;;5035732;28;20029;-79
2022/07/23 03:22:38;;;;;;;18.27;6.80;;;20.50;99.90;;;;;;5035293;28;20494;-79
2022/07/23 03:25:05;;;;;;;18.00;8.27;;;20.50;99.90;;;;;;5035607;28;20028;-80
2022/07/23 03:27:34;;;;;;;14.07;7.75;;;20.50;99.90;;;;;;5054089;28;20029;-78
2022/07/23 03:30:00;;;;;;;17.77;8.63;;;20.60;99.90;;;;;;5022520;28;20039;-79
2022/07/23 03:32:27;;;;;;;25.38;9.25;;;20.60;99.90;;;;;;5046223;28;20411;-79
2022/07/23 03:34:53;;;;;;;41.60;17.30;;;20.60;99.90;;;;;;5054025;28;20021;-79
2022/07/23 03:37:20;;;;;;;44.60;20.10;;;20.70;99.90;;;;;;5053509;28;20111;-76
2022/07/23 03:39:47;;;;;;;35.80;17.23;;;20.80;99.90;;;;;;5026485;28;20515;-80
2022/07/23 03:42:13;;;;;;;61.10;26.48;;;20.80;99.90;;;;;;5048262;28;20025;-77
2022/07/23 03:44:39;;;;;;;60.55;25.88;;;20.90;99.90;;;;;;5035554;28;20031;-74
2022/07/23 03:47:06;;;;;;;30.02;14.90;;;21.20;99.90;;;;;;5035899;28;20105;-79
2022/07/23 03:49:33;;;;;;;33.03;15.18;;;21.70;99.90;;;;;;5053571;28;20031;-80
2022/07/23 03:51:58;;;;;;;35.80;14.45;;;22.10;99.90;;;;;;5023827;28;20087;-80
2022/07/23 03:54:24;;;;;;;34.10;16.70;;;22.30;99.90;;;;;;5064374;28;20483;-80
2022/07/23 03:56:50;;;;;;;31.48;12.57;;;23.00;99.90;;;;;;5068203;28;20037;-78
2022/07/23 03:59:16;;;;;;;25.67;12.27;;;23.50;98.20;;;;;;5053527;28;20418;-80
2022/07/23 04:01:42;;;;;;;27.27;12.55;;;;;;;;;;5053627;28;20098;-80
2022/07/23 04:04:09;;;;;;;20.00;10.05;;;;;;;;;;5030422;28;20488;-78
2022/07/23 04:06:36;;;;;;;16.40;8.82;;;25.20;90.10;;;;;;5034043;28;20036;-79
2022/07/23 04:09:04;;;;;;;21.20;10.77;;;25.80;88.10;;;;;;5034918;28;20391;-79
2022/07/23 04:11:30;;;;;;;21.90;9.60;;;26.30;86.30;;;;;;5034972;28;20562;-79
2022/07/23 04:13:56;;;;;;;17.42;8.38;;;26.90;84.90;;;;;;5035745;28;20119;-73
2022/07/23 04:16:22;;;;;;;16.20;7.88;;;27.70;77.50;;;;;;5035121;28;20100;-76
2022/07/23 04:18:49;;;;;;;19.08;8.07;;;28.30;76.10;;;;;;5034922;28;20061;-78
2022/07/23 04:21:18;;;;;;;12.95;7.00;;;28.30;76.50;;;;;;5035262;28;20459;-79
2022/07/23 04:23:45;;;;;;;14.65;7.45;;;29.00;73.90;;;;;;5034654;28;20079;-78
2022/07/23 04:26:12;;;;;;;15.93;7.40;;;29.30;71.70;;;;;;5035099;28;20021;-79
2022/07/23 04:28:39;;;;;;;14.73;7.18;;;29.60;69.90;;;;;;5034611;28;20029;-78
2022/07/23 04:31:05;;;;;;;17.20;6.72;;;30.20;68.20;;;;;;5034674;28;20017;-78
2022/07/23 04:33:31;;;;;;;12.88;6.80;;;30.50;67.10;;;;;;5034869;28;20044;-78
2022/07/23 04:36:01;;;;;;;11.95;7.47;;;;;;;;;;5015565;28;20112;-78
2022/07/23 04:38:27;;;;;;;14.00;7.85;;;31.40;65.40;;;;;;5026496;28;20071;-79
2022/07/23 04:40:58;;;;;;;22.27;13.70;;;31.10;65.80;;;;;;5034575;28;20117;-78
2022/07/23 04:43:25;;;;;;;14.65;9.00;;;;;;;;;;5034606;28;20052;-77
2022/07/23 04:45:51;;;;;;;15.43;9.20;;;32.40;72.80;;;;;;5052467;28;20021;-78
2022/07/23 04:48:17;;;;;;;19.15;8.75;;;32.60;61.20;;;;;;5034627;28;20041;-79
2022/07/23 04:50:43;;;;;;;18.58;8.40;;;32.60;61.60;;;;;;5034503;28;20017;-79
2022/07/23 04:53:18;;;;;;;15.02;6.65;;;33.30;66.50;;;;;;5052475;28;20037;-79
2022/07/23 04:55:44;;;;;;;17.00;8.40;;;;;;;;;;5021095;28;20021;-79
2022/07/23 04:58:10;;;;;;;14.68;6.40;;;33.40;88.30;;;;;;5034188;28;20025;-76
2022/07/23 05:00:36;;;;;;;15.73;6.97;;;33.00;86.30;;;;;;5052304;28;20032;-79
2022/07/23 05:03:02;;;;;;;16.90;6.20;;;32.50;86.30;;;;;;5033442;28;20049;-79
2022/07/23 05:05:28;;;;;;;16.10;5.68;;;32.60;77.00;;;;;;5050806;28;20032;-76
2022/07/23 05:08:05;;;;;;;23.15;7.10;;;31.90;76.80;;;;;;5022098;28;20025;-74
2022/07/23 05:10:31;;;;;;;22.27;6.28;;;30.80;61.90;;;;;;5015370;28;20026;-78
2022/07/23 05:12:57;;;;;;;13.18;6.72;;;30.60;63.10;;;;;;5031843;28;20036;-79
2022/07/23 05:15:23;;;;;;;13.13;6.32;;;30.20;63.60;;;;;;5047125;28;20032;-79
2022/07/23 05:17:48;;;;;;;17.25;7.22;;;29.80;64.40;;;;;;5047941;28;20506;-72
2022/07/23 05:20:16;;;;;;;15.90;7.68;;;29.50;65.00;;;;;;5024594;28;20029;-78
2022/07/23 05:22:42;;;;;;;20.98;7.53;;;;;;;;;;5029518;28;20383;-78
2022/07/23 05:25:09;;;;;;;18.40;7.63;;;;;;;;;;5055876;28;20099;-77
2022/07/23 05:27:35;;;;;;;16.38;7.55;;;27.90;65.20;;;;;;5038361;28;20024;-75
2022/07/23 05:30:01;;;;;;;17.75;8.20;;;27.80;66.70;;;;;;5038351;28;20025;-78
2022/07/23 05:32:32;;;;;;;15.65;7.28;;;27.70;67.60;;;;;;5037746;28;20048;-77
2022/07/23 05:35:08;;;;;;;22.92;7.53;;;27.70;68.30;;;;;;5038050;28;20024;-77
2022/07/23 05:37:38;;;;;;;18.17;8.20;;;27.90;70.00;;;;;;5024375;28;20373;-78
2022/07/23 05:40:07;;;;;;;14.77;7.95;;;27.80;70.00;;;;;;5038311;28;20022;-77
2022/07/23 05:42:37;;;;;;;17.27;6.85;;;27.80;71.40;;;;;;5056334;28;20025;-78
2022/07/23 05:45:04;;;;;;;17.77;7.53;;;28.10;72.60;;;;;;5038268;28;20056;-78
2022/07/23 05:47:45;;;;;;;19.23;7.75;;;28.00;71.80;;;;;;5038060;28;20017;-77
2022/07/23 05:50:13;;;;;;;18.17;7.97;;;27.90;73.20;;;;;;5037873;28;20091;-78
2022/07/23 05:52:44;;;;;;;;;;;27.90;72.80;;;;;;5038027;28;20112;-78
2022/07/23 05:55:28;;;;;;;22.80;7.28;;;28.00;73.10;;;;;;5055431;28;19917;-78
2022/07/23 05:57:56;;;;;;;15.45;7.90;;;28.40;73.00;;;;;;5037299;28;20471;-78
2022/07/23 06:00:22;;;;;;;14.18;6.18;;;28.30;71.60;;;;;;5054951;28;20029;-77
2022/07/23 06:02:48;;;;;;;21.10;8.15;;;28.70;71.00;;;;;;5037309;28;20045;-78
2022/07/23 06:05:16;;;;;;;16.77;7.68;;;28.80;71.80;;;;;;5037639;28;20475;-78
2022/07/23 06:07:43;;;;;;;24.13;7.97;;;28.50;71.10;;;;;;5021511;28;20116;-78
2022/07/23 06:10:09;;;;;;;21.67;8.48;;;;;;;;;;5037456;28;20452;-76
2022/07/23 06:12:36;;;;;;;16.48;7.07;;;29.00;69.50;;;;;;5055237;28;20124;-77
2022/07/23 06:15:03;;;;;;;16.20;7.53;;;29.20;78.80;;;;;;5023524;28;20486;-77
2022/07/23 06:17:29;;;;;;;14.07;6.13;;;;;;;;;;5037567;28;20032;-77
2022/07/23 06:19:56;;;;;;;14.82;7.43;;;;;;;;;;5055315;28;20029;-77
2022/07/23 06:22:22;;;;;;;17.70;6.72;;;30.00;72.90;;;;;;5037433;28;20033;-79
2022/07/23 06:24:49;;;;;;;20.63;9.65;;;29.90;72.80;;;;;;5037462;28;20027;-79
2022/07/23 06:27:15;;;;;;;30.70;8.50;;;;;;;;;;5037340;28;20128;-78
2022/07/23 06:29:41;;;;;;;19.25;9.18;;;;;;;;;;5055184;28;20024;-79
2022/07/23 06:32:07;;;;;;;19.08;8.80;;;30.70;63.70;;;;;;5037132;28;20062;-79
2022/07/23 06:34:33;;;;;;;19.45;8.15;;;30.70;62.70;;;;;;5054589;28;20032;-79
2022/07/23 06:37:00;;;;;;;37.05;9.18;;;30.80;63.30;;;;;;5036069;28;20037;-75
2022/07/23 06:39:26;;;;;;;20.30;9.30;;;31.00;64.90;;;;;;5054141;28;20025;-79
2022/07/23 06:41:52;;;;;;;23.23;12.32;;;31.20;63.60;;;;;;5054769;28;20387;-79
2022/07/23 06:44:18;;;;;;;26.27;11.65;;;31.40;66.30;;;;;;5036719;28;20018;-78
2022/07/23 06:46:47;;;;;;;32.35;16.63;;;;;;;;;;5037007;28;20033;-78
2022/07/23 06:49:13;;;;;;;30.67;15.13;;;31.80;60.50;;;;;;5035972;28;20066;-77
2022/07/23 06:51:39;;;;;;;24.65;10.88;;;31.60;60.00;;;;;;5036809;28;20040;-76
2022/07/23 06:54:05;;;;;;;17.20;9.38;;;31.90;60.70;;;;;;5054714;28;20382;-76
2022/07/23 06:56:31;;;;;;;27.17;15.13;;;31.60;60.00;;;;;;5054609;28;20036;-76
2022/07/23 06:58:57;;;;;;;24.85;8.32;;;;;;;;;;5054521;28;20021;-76
2022/07/23 07:01:23;;;;;;;15.63;8.70;;;32.00;60.10;;;;;;5036358;28;20527;-77
2022/07/23 07:03:48;;;;;;;21.05;9.05;;;32.20;59.80;;;;;;5054184;28;20033;-77
2022/07/23 07:06:15;;;;;;;17.50;9.18;;;;;;;;;;5054052;28;20033;-77
2022/07/23 07:08:42;;;;;;;21.25;8.75;;;32.40;59.70;;;;;;5053960;28;20017;-77
2022/07/23 07:11:08;;;;;;;18.08;8.40;;;32.40;59.50;;;;;;5053904;28;20515;-77
2022/07/23 07:13:34;;;;;;;21.35;10.52;;;32.40;60.10;;;;;;5053479;28;20064;-77
2022/07/23 07:16:00;;;;;;;21.63;9.90;;;32.60;59.50;;;;;;5053919;28;20056;-77
2022/07/23 07:18:26;;;;;;;26.83;9.13;;;31.70;58.60;;;;;;5053758;28;20102;-77
2022/07/23 07:20:52;;;;;;;22.10;9.65;;;32.00;59.60;;;;;;5053914;28;20028;-76
2022/07/23 07:23:17;;;;;;;22.20;10.20;;;32.30;60.30;;;;;;5053612;28;20499;-78
2022/07/23 07:25:43;;;;;;;24.05;10.60;;;32.70;60.10;;;;;;5053595;28;20017;-78
2022/07/23 07:28:09;;;;;;;21.98;10.88;;;33.00;66.00;;;;;;5053639;28;20112;-78
2022/07/23 07:30:35;;;;;;;28.60;10.65;;;33.30;57.80;;;;;;5053978;28;20035;-78
2022/07/23 07:33:01;;;;;;;24.70;10.98;;;33.30;58.40;;;;;;5054231;28;20041;-77
2022/07/23 07:35:27;;;;;;;18.98;8.90;;;33.50;58.80;;;;;;5054919;28;20031;-78
2022/07/23 07:37:53;;;;;;;19.27;9.43;;;33.60;58.60;;;;;;5054666;28;20032;-79
2022/07/23 07:40:19;;;;;;;19.35;8.95;;;34.00;57.70;;;;;;5053940;28;20063;-78
2022/07/23 07:42:51;;;;;;;21.67;8.70;;;34.10;57.80;;;;;;5054229;28;20021;-78
2022/07/23 07:45:18;;;;;;;16.35;8.63;;;;;;;;;;5053485;28;20074;-79
2022/07/23 07:47:44;;;;;;;21.95;10.00;;;34.20;57.50;;;;;;5052603;28;20100;-79
2022/07/23 07:50:10;;;;;;;25.65;9.25;;;34.20;56.70;;;;;;5053292;28;20111;-79
2022/07/23 07:52:36;;;;;;;26.02;9.43;;;34.10;56.60;;;;;;5053269;28;20383;-79
2022/07/23 07:55:07;;;;;;;17.35;8.57;;;34.10;56.40;;;;;;5053489;28;20025;-79
2022/07/23 07:57:33;;;;;;;24.73;8.30;;;;;;;;;;5053408;28;20025;-77
2022/07/23 08:00:01;;;;;;;19.83;7.47;;;;;;;;;;5053486;28;20021;-77
2022/07/23 08:02:27;;;;;;;15.88;5.40;;;;;;;;;;5053225;28;20095;-78
2022/07/23 08:04:56;;;;;;;12.07;6.70;;;;;;;;;;5053146;28;20024;-78
2022/07/23 08:07:21;;;;;;;9.90;5.95;;;34.70;54.30;;;;;;5052720;28;20265;-77
2022/07/23 08:09:47;;;;;;;12.32;6.20;;;34.50;57.00;;;;;;5052583;28;20096;-77
2022/07/23 08:12:13;;;;;;;9.32;5.63;;;34.70;56.20;;;;;;5050694;28;20090;-77
2022/07/23 08:14:39;;;;;;;12.98;5.82;;;34.70;55.30;;;;;;5052565;28;20024;-77
2022/07/23 08:17:05;;;;;;;11.55;5.90;;;34.60;55.20;;;;;;5052135;28;20483;-64
2022/07/23 08:19:30;;;;;;;13.02;5.15;;;34.60;56.20;;;;;;5052326;28;20080;-76
2022/07/23 08:21:56;;;;;;;13.93;5.78;;;34.90;55.80;;;;;;5052572;28;20025;-74
2022/07/23 08:24:22;;;;;;;10.07;5.45;;;35.00;55.70;;;;;;5052397;28;20483;-77
2022/07/23 08:26:48;;;;;;;9.45;4.75;;;34.90;53.80;;;;;;5052252;28;20029;-72
2022/07/23 08:29:13;;;;;;;12.65;6.22;;;35.30;54.60;;;;;;5051881;28;20021;-62
2022/07/23 08:31:40;;;;;;;13.25;5.75;;;35.20;54.60;;;;;;5052502;28;20083;-62
2022/07/23 08:34:05;;;;;;;12.52;5.45;;;35.40;54.10;;;;;;5052068;28;20108;-65
2022/07/23 08:36:32;;;;;;;11.70;5.68;;;35.70;53.70;;;;;;5052175;28;20104;-62
2022/07/23 08:38:59;;;;;;;15.70;6.95;;;35.80;52.80;;;;;;5052591;28;20107;-77
2022/07/23 08:41:25;;;;;;;15.05;7.15;;;35.20;55.10;;;;;;5052739;28;20028;-75
2022/07/23 08:43:52;;;;;;;17.23;6.53;;;35.40;55.10;;;;;;5052161;28;20395;-77
2022/07/23 08:46:19;;;;;;;13.13;6.40;;;35.30;54.50;;;;;;5052513;28;20033;-75
2022/07/23 08:48:48;;;;;;;17.63;6.47;;;35.20;55.10;;;;;;5052293;28;20017;-77
2022/07/23 08:51:14;;;;;;;17.23;7.03;;;35.00;54.80;;;;;;5052570;28;20031;-77
2022/07/23 08:53:41;;;;;;;15.95;6.43;;;35.30;55.10;;;;;;5052418;28;20029;-77
2022/07/23 08:56:08;;;;;;;13.02;4.93;;;35.10;54.80;;;;;;5052444;28;20104;-77
2022/07/23 08:58:34;;;;;;;12.77;4.40;;;35.10;48.70;;;;;;5052057;28;20028;-74
2022/07/23 09:01:01;;;;;;;11.40;5.28;;;35.00;47.30;;;;;;5052521;28;20021;-71
2022/07/23 09:03:36;;;;;;;9.23;4.40;;;35.30;50.20;;;;;;5052830;28;20526;-75
2022/07/23 09:06:02;;;;;;;9.68;4.70;;;35.60;47.80;;;;;;5052827;28;20511;-76
2022/07/23 09:08:36;;;;;;;8.00;3.65;;;35.60;46.40;;;;;;5052238;28;20047;-76
2022/07/23 09:11:04;;;;;;;7.03;3.80;;;35.60;46.10;;;;;;5055307;28;20035;-77
2022/07/23 09:13:39;;;;;;;8.60;3.72;;;36.00;46.40;;;;;;5053539;28;20025;-74
2022/07/23 09:16:16;;;;;;;7.93;3.17;;;35.40;44.60;;;;;;5053886;28;20029;-77
2022/07/23 09:18:43;;;;;;;19.35;4.80;;;35.80;45.00;;;;;;5054247;28;20467;-76
2022/07/23 09:21:20;;;;;;;13.57;4.47;;;35.50;46.00;;;;;;5036099;28;20028;-76
2022/07/23 09:23:59;;;;;;;12.18;4.68;;;36.20;47.80;;;;;;5054295;28;20408;-76
2022/07/23 09:26:29;;;;;;;13.88;5.13;;;36.20;47.10;;;;;;5053147;28;20372;-77
2022/07/23 09:29:06;;;;;;;13.65;5.15;;;36.10;47.20;;;;;;5054183;28;20375;-76
2022/07/23 09:31:42;;;;;;;11.35;5.15;;;36.50;49.30;;;;;;5057138;28;20021;-73
2022/07/23 09:34:12;;;;;;;10.82;4.78;;;36.80;58.40;;;;;;5050123;28;20040;-73
2022/07/23 09:36:39;;;;;;;11.70;4.40;;;;;;;;;;5048711;28;20032;-73
2022/07/23 09:39:06;;;;;;;10.13;5.43;;;36.70;47.80;;;;;;5052744;28;20467;-77
2022/07/23 09:41:43;;;;;;;12.02;4.97;;;36.90;49.60;;;;;;5055604;28;20021;-77
2022/07/23 09:44:17;;;;;;;9.20;4.90;;;37.00;48.80;;;;;;5053574;28;20123;-76
2022/07/23 09:46:48;;;;;;;10.70;5.25;;;36.70;49.10;;;;;;5051995;28;20029;-77
2022/07/23 09:49:18;;;;;;;;;;;36.00;48.20;;;;;;5053273;28;20032;-75
2022/07/23 09:51:53;;;;;;;9.20;4.43;;;36.30;48.70;;;;;;5053295;28;19972;-77
2022/07/23 09:54:35;;;;;;;7.57;3.42;;;36.50;49.50;;;;;;5053504;28;20053;-77
2022/07/23 09:57:09;;;;;;;10.80;3.38;;;36.50;45.30;;;;;;5054364;28;20029;-77
2022/07/23 09:59:37;;;;;;;10.73;3.78;;;37.00;47.80;;;;;;5053561;28;20356;-73
2022/07/23 10:02:05;;;;;;;7.88;3.80;;;37.20;47.20;;;;;;5054366;28;20041;-74
2022/07/23 10:04:38;;;;;;;9.18;3.75;;;38.10;46.70;;;;;;5035547;28;20125;-74
2022/07/23 10:07:17;;;;;;;8.70;3.80;;;37.20;45.90;;;;;;5037173;28;20036;-77
2022/07/23 10:10:04;;;;;;;6.97;3.55;;;37.70;45.70;;;;;;5055625;28;20068;-77
2022/07/23 10:15:30;;;;;;;8.07;4.28;;;36.80;41.80;;;;;;5036753;28;20074;-76
2022/07/23 10:17:55;;;;;;;7.40;4.68;;;37.10;41.50;;;;;;5057410;28;20494;-77
2022/07/23 10:20:21;;;;;;;13.05;4.63;;;37.50;43.00;;;;;;5056105;28;20021;-71
2022/07/23 10:23:09;;;;;;;6.57;3.78;;;37.40;45.20;;;;;;5060065;28;20029;-75
2022/07/23 10:26:20;;;;;;;8.70;4.50;;;37.00;44.50;;;;;;5053416;28;20151;-77
2022/07/23 10:29:01;;;;;;;6.95;3.90;;;37.10;44.40;;;;;;4993591;28;20038;-77
2022/07/23 10:31:52;;;;;;;7.10;3.72;;;37.10;44.60;;;;;;4994874;28;20437;-78
2022/07/23 10:34:22;;;;;;;6.53;3.40;;;37.30;43.90;;;;;;4994981;28;20103;-76
2022/07/23 10:36:53;;;;;;;9.00;3.70;;;37.10;43.90;;;;;;4995283;28;20026;-76
2022/07/23 10:39:31;;;;;;;5.57;3.45;;;37.20;44.60;;;;;;4995979;28;20046;-76
2022/07/23 10:42:17;;;;;;;7.18;4.32;;;37.10;44.40;;;;;;4995206;28;20034;-77
2022/07/23 10:44:47;;;;;;;7.53;3.70;;;37.10;45.20;;;;;;4994639;28;20041;-76
2022/07/23 10:50:18;;;;;;;7.60;3.75;;;37.40;43.20;;;;;;4997014;28;20070;-77
2022/07/23 10:53:03;;;;;;;8.73;4.10;;;37.60;42.50;;;;;;4994485;28;20546;-77
2022/07/23 10:55:29;;;;;;;8.50;3.88;;;37.60;43.90;;;;;;4994016;28;20045;-77
2022/07/23 10:57:55;;;;;;;8.63;4.38;;;37.70;43.20;;;;;;4994612;28;20109;-77
2022/07/23 11:00:28;;;;;;;10.15;3.92;;;38.00;42.90;;;;;;5042937;28;20115;-78
2022/07/23 11:02:56;;;;;;;7.88;4.28;;;38.00;43.40;;;;;;5056011;28;20597;-76
2022/07/23 11:05:47;;;;;;;6.38;3.60;;;38.10;43.70;;;;;;5055613;28;20739;-75
2022/07/23 11:08:15;;;;;;;9.32;4.07;;;38.00;42.90;;;;;;5054735;28;20483;-77
2022/07/23 11:11:04;;;;;;;7.57;3.72;;;37.90;42.30;;;;;;5057614;28;20025;-77
2022/07/23 11:13:35;;;;;;;7.13;3.85;;;37.80;42.70;;;;;;5054446;28;20107;-76
2022/07/23 11:16:04;;;;;;;8.02;3.50;;;37.90;41.80;;;;;;5038735;28;20017;-77
2022/07/23 11:18:42;;;;;;;6.30;3.70;;;37.70;42.40;;;;;;5055592;28;20032;-77
2022/07/23 11:21:36;;;;;;;7.75;4.32;;;37.60;43.20;;;;;;5055201;28;20048;-77
2022/07/23 11:24:14;;;;;;;10.38;4.70;;;37.50;42.70;;;;;;5038532;28;20464;-77
2022/07/23 11:26:52;;;;;;;9.52;4.93;;;37.40;42.60;;;;;;5055597;28;20463;-77
2022/07/23 11:29:27;;;;;;;8.85;4.30;;;37.50;43.70;;;;;;5054687;28;20502;-76
2022/07/23 11:31:56;;;;;;;10.85;4.28;;;37.60;43.80;;;;;;5058021;28;20077;-74
2022/07/23 11:34:41;;;;;;;9.68;4.57;;;37.60;43.20;;;;;;5058210;28;20033;-77
2022/07/23 11:37:10;;;;;;;11.05;5.05;;;37.50;42.80;;;;;;5054791;28;20029;-76
2022/07/23 11:39:37;;;;;;;8.43;4.47;;;37.30;42.00;;;;;;5054832;28;20047;-76
2022/07/23 11:42:05;;;;;;;8.43;4.68;;;37.60;43.30;;;;;;5056424;28;20054;-69
2022/07/23 11:44:35;;;;;;;11.80;5.18;;;37.70;42.90;;;;;;5058781;28;20048;-75
2022/07/23 11:47:03;;;;;;;8.60;4.78;;;37.70;43.00;;;;;;5057697;28;20021;-76
2022/07/23 11:49:29;;;;;;;10.20;5.22;;;37.30;41.80;;;;;;5057050;28;20048;-76
2022/07/23 11:52:11;;;;;;;7.15;4.80;;;37.60;43.20;;;;;;5054362;28;20080;-77
2022/07/23 11:54:54;;;;;;;7.85;4.90;;;37.40;42.10;;;;;;5054130;28;20025;-76
2022/07/23 11:57:25;;;;;;;6.65;4.88;;;37.40;42.40;;;;;;5055141;28;20025;-74
2022/07/23 11:59:55;;;;;;;7.28;4.97;;;37.50;43.30;;;;;;5056975;28;20025;-77
2022/07/23 12:02:21;;;;;;;15.33;5.20;;;37.60;42.90;;;;;;5058394;28;20053;-77
2022/07/23 12:04:50;;;;;;;7.55;4.63;;;37.40;42.60;;;;;;5058375;28;20165;-74
2022/07/23 12:07:28;;;;;;;8.80;5.30;;;37.50;42.80;;;;;;5054877;28;20107;-77
2022/07/23 12:09:55;;;;;;;13.48;5.63;;;37.40;42.50;;;;;;5053973;28;20048;-75
2022/07/23 12:12:22;;;;;;;9.85;5.68;;;37.60;43.00;;;;;;5053167;28;20420;-77
2022/07/23 12:15:07;;;;;;;11.27;5.50;;;37.80;42.90;;;;;;5055393;28;20111;-75
2022/07/23 12:17:36;;;;;;;9.73;5.50;;;37.90;43.90;;;;;;5053792;28;20569;-75
2022/07/23 12:20:05;;;;;;;11.27;5.68;;;37.80;43.30;;;;;;5054518;28;20430;-75
2022/07/23 12:22:40;;;;;;;11.93;5.80;;;37.70;42.80;;;;;;5055449;28;20041;-76
2022/07/23 12:25:15;;;;;;;11.43;5.60;;;37.80;43.50;;;;;;5055423;28;20021;-76
2022/07/23 12:27:41;;;;;;;11.27;6.32;;;37.80;43.60;;;;;;5054945;28;20028;-77
2022/07/23 12:30:19;;;;;;;9.07;6.00;;;37.90;44.10;;;;;;5054848;28;20032;-77
2022/07/23 12:32:47;;;;;;;7.85;5.57;;;37.80;43.20;;;;;;5054232;28;20041;-77
2022/07/23 12:35:13;;;;;;;9.25;5.90;;;38.00;43.50;;;;;;5057295;28;20017;-78
2022/07/23 12:37:41;;;;;;;15.18;5.90;;;38.30;43.90;;;;;;5058519;28;20056;-77
2022/07/23 12:40:33;;;;;;;7.40;5.78;;;38.40;44.90;;;;;;5057810;28;20017;-77
2022/07/23 12:43:05;;;;;;;9.38;5.70;;;38.40;43.90;;;;;;5056916;28;20086;-76
2022/07/23 12:45:51;;;;;;;9.48;5.60;;;38.10;43.30;;;;;;5056845;28;20020;-76
2022/07/23 12:48:19;;;;;;;6.45;5.45;;;38.10;43.90;;;;;;5058031;28;20025;-77
2022/07/23 12:51:03;;;;;;;11.13;6.05;;;37.80;43.60;;;;;;5058585;28;20048;-76
2022/07/23 12:53:36;;;;;;;10.60;5.97;;;37.80;43.60;;;;;;5059744;28;20036;-69
2022/07/23 12:56:05;;;;;;;10.52;6.15;;;37.90;44.20;;;;;;5056906;28;20074;-76
2022/07/23 12:58:52;;;;;;;10.32;5.75;;;37.80;43.60;;;;;;5054549;28;20021;-74
2022/07/23 13:01:21;;;;;;;11.15;6.35;;;37.80;43.60;;;;;;5055256;28;20017;-76
2022/07/23 13:04:07;;;;;;;8.93;6.00;;;37.90;44.50;;;;;;5054225;28;20072;-77